Terminal Aerodrome Forecast
Issued by NWS

Home | Current Version | Previous Version | Text Only | Print | Product List | Glossary On
Versions: 1 2 3 4 5 6 7 8 9 10 11 12 13 14 15
000
FTUS41 KCLE 172300
TAFFDY
TAF
KFDY 172329Z 1800/1824 19010KT P6SM SCT150 BKN250
     FM180500 21005KT P6SM BKN120 OVC200
     FM181400 30010KT P6SM VCSH SCT040 OVC100
     FM181700 32010KT P6SM SCT100 BKN200=

USA.gov is the U.S. government's official web portal to all federal, state and local government web resources and services.